Time;durP1;ratioP1;P1;durP2;ratioP2;P2;SDS_P1;SDS_P2;PMS_P1;PMS_P2;Temp;Humidity;BMP_temperature;BMP_pressure;BME280_temperature;BME280_humidity;BME280_pressure;Samples;Min_cycle;Max_cycle;Signal;HPM_P1;HPM_P2
2021/01/12 00:02:21;;;;;;;217.75;92.22;;;0.70;2201.60;;;;;;4915166;29;20082;-67
2021/01/12 00:04:48;;;;;;;236.65;94.35;;;0.60;2201.60;;;;;;4927663;29;20670;-67
2021/01/12 00:07:14;;;;;;;235.48;95.13;;;0.70;2201.60;;;;;;4921295;29;20048;-68
2021/01/12 00:09:40;;;;;;;239.20;93.82;;;0.60;2201.60;;;;;;4917661;29;20381;-67
2021/01/12 00:12:07;;;;;;;219.70;90.95;;;0.60;2201.60;;;;;;4916448;29;20032;-67
2021/01/12 00:14:33;;;;;;;239.57;94.20;;;0.70;2201.60;;;;;;4915951;29;20032;-67
2021/01/12 00:17:04;;;;;;;240.18;95.65;;;0.70;2201.60;;;;;;4917285;29;20058;-67
2021/01/12 00:19:30;;;;;;;229.35;93.88;;;0.50;2201.60;;;;;;4916947;29;20039;-67
2021/01/12 00:21:56;;;;;;;239.75;94.22;;;0.60;2201.60;;;;;;4915524;29;20497;-67
2021/01/12 00:24:22;;;;;;;272.10;99.10;;;0.50;2201.60;;;;;;4914949;29;20032;-67
2021/01/12 00:26:49;;;;;;;228.75;90.47;;;0.60;2201.60;;;;;;4908594;29;20147;-66
2021/01/12 00:29:14;;;;;;;228.05;92.85;;;0.50;2201.60;;;;;;4896471;29;20052;-67
2021/01/12 00:31:41;;;;;;;238.50;89.05;;;0.50;2201.60;;;;;;4911768;29;20032;-67
2021/01/12 00:34:08;;;;;;;277.83;98.80;;;0.50;2201.60;;;;;;4916575;29;20063;-67
2021/01/12 00:36:39;;;;;;;261.58;96.57;;;0.50;2201.60;;;;;;4916580;29;20112;-67
2021/01/12 00:39:05;;;;;;;262.63;99.53;;;0.40;2201.60;;;;;;4916126;29;20024;-67
2021/01/12 00:41:31;;;;;;;286.08;101.47;;;0.40;2201.60;;;;;;4917943;29;20036;-68
2021/01/12 00:43:57;;;;;;;256.40;95.63;;;0.30;2201.60;;;;;;4916538;29;20039;-67
2021/01/12 00:46:23;;;;;;;290.15;102.47;;;0.40;2201.60;;;;;;4915968;29;20494;-67
2021/01/12 00:48:48;;;;;;;244.70;94.60;;;0.40;2201.60;;;;;;4916385;29;20068;-67
2021/01/12 00:51:14;;;;;;;267.48;99.35;;;0.50;2201.60;;;;;;4917101;29;20043;-66
2021/01/12 00:53:40;;;;;;;247.93;91.60;;;0.50;2201.60;;;;;;4921964;29;20545;-67
2021/01/12 00:56:17;;;;;;;286.92;99.40;;;0.50;2201.60;;;;;;4914565;29;20024;-68
2021/01/12 00:58:42;;;;;;;273.15;102.18;;;0.50;2201.60;;;;;;4929052;29;20040;-67
2021/01/12 01:01:11;;;;;;;261.75;105.72;;;0.50;2201.60;;;;;;4916738;29;20051;-67
2021/01/12 01:03:36;;;;;;;257.48;91.70;;;0.50;2201.60;;;;;;4924410;29;20035;-67
2021/01/12 01:06:06;;;;;;;273.08;97.03;;;0.60;2201.60;;;;;;4916513;29;20031;-67
2021/01/12 01:08:31;;;;;;;244.20;89.97;;;0.50;2201.60;;;;;;4915448;29;20055;-71
2021/01/12 01:11:02;;;;;;;258.50;90.85;;;0.50;2201.60;;;;;;4917415;29;20032;-68
2021/01/12 01:13:27;;;;;;;306.17;102.93;;;0.50;2201.60;;;;;;4930982;29;20020;-68
2021/01/12 01:15:53;;;;;;;263.17;95.32;;;0.50;2201.60;;;;;;4916697;29;20072;-67
2021/01/12 01:18:19;;;;;;;236.73;85.82;;;0.60;2201.60;;;;;;4917471;29;20474;-67
2021/01/12 01:20:44;;;;;;;279.88;93.60;;;0.60;2201.60;;;;;;4917102;29;20040;-67
2021/01/12 01:23:10;;;;;;;294.17;92.25;;;0.70;2201.60;;;;;;4900318;29;20036;-67
2021/01/12 01:25:36;;;;;;;243.30;86.38;;;0.60;2201.60;;;;;;4916099;29;20663;-67
2021/01/12 01:28:02;;;;;;;259.98;87.72;;;0.60;2201.60;;;;;;4915545;29;20086;-68
2021/01/12 01:30:27;;;;;;;243.77;86.63;;;0.60;2201.60;;;;;;4916317;29;20028;-67
2021/01/12 01:32:53;;;;;;;277.67;90.93;;;0.50;2201.60;;;;;;4915103;29;20116;-67
2021/01/12 01:35:19;;;;;;;266.95;91.88;;;0.60;2201.60;;;;;;4918403;29;20442;-67
2021/01/12 01:37:45;;;;;;;272.45;91.55;;;0.70;2201.60;;;;;;4915871;29;20478;-67
2021/01/12 01:40:14;;;;;;;282.25;94.03;;;0.60;2201.60;;;;;;4915306;29;20533;-67
2021/01/12 01:42:39;;;;;;;275.90;90.28;;;0.70;2201.60;;;;;;4914679;29;20024;-67
2021/01/12 01:45:08;;;;;;;262.52;85.10;;;0.60;2201.60;;;;;;4920572;29;20403;-67
2021/01/12 01:47:35;;;;;;;268.55;89.88;;;0.70;2201.60;;;;;;4915106;29;20024;-67
2021/01/12 01:50:02;;;;;;;278.80;89.88;;;0.70;2201.60;;;;;;4925377;29;20118;-67
2021/01/12 01:52:28;;;;;;;287.08;90.40;;;0.80;2201.60;;;;;;4916820;29;20036;-67
2021/01/12 01:54:57;;;;;;;260.85;85.72;;;0.70;2201.60;;;;;;4915746;29;20502;-67
2021/01/12 01:57:23;;;;;;;259.25;88.40;;;0.70;2201.60;;;;;;4915031;29;20107;-66
2021/01/12 01:59:52;;;;;;;290.17;96.93;;;0.60;2201.60;;;;;;4910551;29;20032;-67
2021/01/12 02:02:18;;;;;;;266.42;87.10;;;0.50;2201.60;;;;;;4911803;29;20041;-67
2021/01/12 02:04:45;;;;;;;283.00;87.75;;;0.50;2201.60;;;;;;4914583;29;20786;-67
2021/01/12 02:07:14;;;;;;;300.67;89.10;;;0.40;2201.60;;;;;;4919107;29;20049;-66
2021/01/12 02:09:49;;;;;;;286.38;86.75;;;0.50;2201.60;;;;;;4928417;29;20061;-67
2021/01/12 02:12:27;;;;;;;292.50;94.80;;;0.50;2201.60;;;;;;4917320;29;20391;-80
2021/01/12 02:14:54;;;;;;;322.58;100.18;;;0.50;2201.60;;;;;;4922750;29;20061;-68
2021/01/12 02:17:20;;;;;;;320.42;96.43;;;0.40;2201.60;;;;;;4919302;29;20115;-72
2021/01/12 02:19:46;;;;;;;278.55;90.25;;;0.50;2201.60;;;;;;4918681;29;20607;-67
2021/01/12 02:22:20;;;;;;;327.67;98.47;;;0.50;2201.60;;;;;;4925617;29;20040;-67
2021/01/12 02:24:47;;;;;;;319.05;99.05;;;0.50;2201.60;;;;;;4919170;29;20025;-67
2021/01/12 02:27:19;;;;;;;259.80;86.75;;;0.50;2201.60;;;;;;4910078;29;20024;-67
2021/01/12 02:29:45;;;;;;;301.15;92.68;;;0.60;2201.60;;;;;;4903399;29;20021;-67
2021/01/12 02:32:11;;;;;;;301.63;90.22;;;0.60;2201.60;;;;;;4917598;29;20087;-67
2021/01/12 02:34:38;;;;;;;298.88;92.78;;;0.70;2201.60;;;;;;4921512;29;20110;-66
2021/01/12 02:37:04;;;;;;;317.83;97.68;;;0.60;2201.60;;;;;;4918375;29;20115;-66
2021/01/12 02:39:30;;;;;;;316.77;94.20;;;0.60;2201.60;;;;;;4927724;29;20115;-67
2021/01/12 02:41:55;;;;;;;331.67;95.57;;;0.60;2201.60;;;;;;4920790;29;20571;-67
2021/01/12 02:44:23;;;;;;;305.70;94.20;;;0.70;2201.60;;;;;;4918028;29;20028;-66
2021/01/12 02:46:50;;;;;;;297.45;91.82;;;0.60;2201.60;;;;;;4919181;29;20060;-66
2021/01/12 02:49:16;;;;;;;317.88;92.50;;;0.50;2201.60;;;;;;4921589;29;20035;-68
2021/01/12 02:51:41;;;;;;;325.23;94.97;;;0.60;2201.60;;;;;;4917193;29;20044;-67
2021/01/12 02:54:07;;;;;;;278.27;87.43;;;0.70;2201.60;;;;;;4919106;29;20034;-67
2021/01/12 02:56:33;;;;;;;305.35;93.25;;;0.70;2201.60;;;;;;4900534;29;20036;-67
2021/01/12 02:58:58;;;;;;;303.33;87.30;;;0.70;2201.60;;;;;;4919183;29;20032;-67
2021/01/12 03:01:24;;;;;;;341.65;92.45;;;0.60;2201.60;;;;;;4902142;29;20079;-67
2021/01/12 03:03:50;;;;;;;312.88;92.85;;;0.60;2201.60;;;;;;4917432;29;20475;-68
2021/01/12 03:06:15;;;;;;;266.95;84.22;;;0.60;2201.60;;;;;;4915656;29;20434;-67
2021/01/12 03:08:41;;;;;;;295.08;89.07;;;0.70;2201.60;;;;;;4922877;29;20044;-67
2021/01/12 03:11:07;;;;;;;301.17;88.15;;;0.70;2201.60;;;;;;4921600;29;20036;-67
2021/01/12 03:13:33;;;;;;;342.83;92.97;;;0.70;2201.60;;;;;;4927712;29;20075;-67
2021/01/12 03:15:58;;;;;;;300.58;89.13;;;0.70;2201.60;;;;;;4920123;29;20406;-68
2021/01/12 03:18:24;;;;;;;336.58;91.35;;;0.70;2201.60;;;;;;4900113;29;20149;-67
2021/01/12 03:20:50;;;;;;;360.20;90.70;;;0.70;2201.60;;;;;;4917946;29;20451;-67
2021/01/12 03:23:15;;;;;;;409.17;96.68;;;0.70;2201.60;;;;;;4917397;29;20774;-66
2021/01/12 03:25:41;;;;;;;340.63;89.85;;;0.60;2201.60;;;;;;4917198;29;20047;-67
2021/01/12 03:28:07;;;;;;;346.70;86.45;;;0.60;2201.60;;;;;;4914048;29;20092;-67
2021/01/12 03:30:33;;;;;;;324.65;84.60;;;0.60;2201.60;;;;;;4917296;29;20095;-66
2021/01/12 03:32:58;;;;;;;366.48;89.85;;;0.70;2201.60;;;;;;4919346;29;20040;-67
2021/01/12 03:35:24;;;;;;;370.73;85.70;;;0.60;2201.60;;;;;;4918487;29;20035;-67
2021/01/12 03:37:50;;;;;;;432.45;97.05;;;0.70;2201.60;;;;;;4917697;29;20114;-67
2021/01/12 03:40:17;;;;;;;431.55;97.82;;;0.70;2201.60;;;;;;4924596;29;20387;-67
2021/01/12 03:42:43;;;;;;;417.40;95.82;;;0.70;2201.60;;;;;;4921148;29;20040;-67
2021/01/12 03:45:09;;;;;;;358.73;88.35;;;0.70;2201.60;;;;;;4917473;29;20036;-68
2021/01/12 03:47:34;;;;;;;334.33;87.18;;;0.70;2201.60;;;;;;4914418;29;20055;-67
2021/01/12 03:50:00;;;;;;;337.15;86.07;;;0.70;2201.60;;;;;;4917535;29;20383;-67
2021/01/12 03:52:26;;;;;;;288.50;77.30;;;0.70;2201.60;;;;;;4897865;29;20060;-67
2021/01/12 03:54:53;;;;;;;290.75;78.28;;;0.80;2201.60;;;;;;4913232;29;20028;-67
2021/01/12 03:57:18;;;;;;;295.63;76.72;;;0.70;2201.60;;;;;;4916192;29;20028;-67
2021/01/12 03:59:44;;;;;;;338.25;83.32;;;0.70;2201.60;;;;;;4926369;29;20038;-67
2021/01/12 04:02:10;;;;;;;307.50;81.15;;;0.70;2201.60;;;;;;4917262;29;20120;-67
2021/01/12 04:04:36;;;;;;;302.27;81.22;;;0.50;2201.60;;;;;;4918989;29;20129;-69
2021/01/12 04:07:02;;;;;;;286.23;79.45;;;0.60;2201.60;;;;;;4917263;29;20043;-67
2021/01/12 04:09:27;;;;;;;303.88;81.35;;;0.60;2201.60;;;;;;4899817;29;20494;-67
2021/01/12 04:11:54;;;;;;;303.88;82.15;;;0.70;2201.60;;;;;;4916359;29;20031;-67
2021/01/12 04:14:20;;;;;;;270.10;79.72;;;0.60;2201.60;;;;;;4917274;29;20123;-68
2021/01/12 04:16:45;;;;;;;306.35;80.20;;;0.60;2201.60;;;;;;4920216;29;20538;-66
2021/01/12 04:19:11;;;;;;;348.75;85.50;;;0.50;2201.60;;;;;;4917282;29;20154;-67
2021/01/12 04:21:37;;;;;;;303.08;79.53;;;0.60;2201.60;;;;;;4924185;29;20052;-67
2021/01/12 04:24:03;;;;;;;317.40;82.45;;;0.60;2201.60;;;;;;4917561;29;20036;-67
2021/01/12 04:26:29;;;;;;;353.45;85.55;;;0.70;2201.60;;;;;;4915665;29;20385;-67
2021/01/12 04:28:54;;;;;;;309.38;81.00;;;0.70;2201.60;;;;;;4915548;29;20032;-67
2021/01/12 04:31:20;;;;;;;296.55;81.43;;;0.70;2201.60;;;;;;4916897;29;20414;-68
2021/01/12 04:33:46;;;;;;;292.40;82.30;;;0.70;2201.60;;;;;;4916452;29;20033;-66
2021/01/12 04:36:11;;;;;;;267.42;78.85;;;0.70;2201.60;;;;;;4916322;29;20032;-66
2021/01/12 04:38:37;;;;;;;295.08;79.88;;;0.70;2201.60;;;;;;4910806;29;20032;-67
2021/01/12 04:41:03;;;;;;;320.75;83.40;;;0.70;2201.60;;;;;;4913385;29;20055;-67
2021/01/12 04:43:28;;;;;;;306.95;81.05;;;0.80;2201.60;;;;;;4915109;29;20404;-67
2021/01/12 04:45:54;;;;;;;234.45;71.15;;;0.80;2201.60;;;;;;4916366;29;20035;-67
2021/01/12 04:48:20;;;;;;;271.45;75.28;;;0.80;2201.60;;;;;;4916987;29;20091;-67
2021/01/12 04:50:45;;;;;;;292.98;80.13;;;0.80;2201.60;;;;;;4927120;29;20031;-67
2021/01/12 04:53:11;;;;;;;262.08;78.30;;;0.70;2201.60;;;;;;4919099;29;20649;-68
2021/01/12 04:55:43;;;;;;;251.38;74.40;;;0.70;2201.60;;;;;;4917890;29;20043;-67
2021/01/12 04:58:08;;;;;;;289.80;85.70;;;0.60;2201.60;;;;;;4913950;29;20087;-67
2021/01/12 05:00:36;;;;;;;283.58;72.55;;;0.50;2201.60;;;;;;4914300;29;20476;-65
2021/01/12 05:03:03;;;;;;;275.90;75.35;;;0.60;2201.60;;;;;;4925547;29;20036;-66
2021/01/12 05:05:29;;;;;;;250.68;72.97;;;0.60;2201.60;;;;;;4918249;29;20055;-66
2021/01/12 05:08:15;;;;;;;226.73;72.35;;;0.70;2201.60;;;;;;4914741;29;20107;-67
2021/01/12 05:10:41;;;;;;;252.88;75.25;;;0.70;2201.60;;;;;;4914647;29;20032;-66
2021/01/12 05:13:11;;;;;;;255.93;74.78;;;0.70;2201.60;;;;;;4915596;29;20062;-68
2021/01/12 05:15:38;;;;;;;269.67;74.85;;;0.70;2201.60;;;;;;4893383;29;20945;-68
2021/01/12 05:18:06;;;;;;;258.98;75.32;;;0.70;2201.60;;;;;;4877415;29;20028;-67
2021/01/12 05:20:43;;;;;;;256.92;76.78;;;0.50;2201.60;;;;;;4881359;29;20917;-68
2021/01/12 05:23:11;;;;;;;274.50;77.25;;;0.40;2201.60;;;;;;4892752;29;20032;-71
2021/01/12 05:25:39;;;;;;;294.75;79.85;;;0.30;2201.60;;;;;;4898784;29;20043;-69
2021/01/12 05:28:12;;;;;;;298.92;80.13;;;0.40;2201.60;;;;;;4897801;29;20046;-69
2021/01/12 05:30:38;;;;;;;243.20;72.68;;;0.40;2201.60;;;;;;4882315;29;20028;-72
2021/01/12 05:33:04;;;;;;;250.32;74.00;;;0.70;2201.60;;;;;;4875319;29;20028;-67
2021/01/12 05:35:32;;;;;;;261.65;72.50;;;0.60;2201.60;;;;;;4881531;29;20035;-68
2021/01/12 05:38:06;;;;;;;272.48;77.13;;;0.60;2201.60;;;;;;4904641;29;20187;-69
2021/01/12 05:40:41;;;;;;;265.20;77.18;;;0.70;2201.60;;;;;;4941230;29;20020;-67
2021/01/12 05:43:12;;;;;;;255.77;74.75;;;0.60;2201.60;;;;;;4934958;28;20081;-69
2021/01/12 05:45:42;;;;;;;261.52;78.13;;;0.70;2201.60;;;;;;4886275;29;20036;-69
2021/01/12 05:48:09;;;;;;;273.60;77.45;;;0.70;2201.60;;;;;;4885608;29;20040;-74
2021/01/12 05:50:36;;;;;;;238.43;73.25;;;0.70;2201.60;;;;;;4886440;29;20032;-70
2021/01/12 05:53:06;;;;;;;235.05;72.25;;;0.60;2201.60;;;;;;4889040;29;20052;-73
2021/01/12 05:55:37;;;;;;;234.70;70.68;;;0.60;2201.60;;;;;;4889095;29;20040;-71
2021/01/12 05:58:11;;;;;;;203.55;65.47;;;0.70;2201.60;;;;;;4892411;29;20950;-68
2021/01/12 06:00:41;;;;;;;225.20;70.82;;;0.60;2201.60;;;;;;4886124;29;20146;-70
2021/01/12 06:03:09;;;;;;;231.90;75.82;;;0.60;2201.60;;;;;;4897856;29;20240;-71
2021/01/12 06:05:37;;;;;;;234.68;72.50;;;0.50;2201.60;;;;;;4901666;29;20017;-69
2021/01/12 06:08:03;;;;;;;297.50;92.40;;;0.60;2201.60;;;;;;4896412;29;20052;-74
2021/01/12 06:10:31;;;;;;;275.30;79.95;;;0.70;2201.60;;;;;;4873407;29;20032;-70
2021/01/12 06:13:03;;;;;;;228.20;67.93;;;0.70;2201.60;;;;;;4890685;29;20027;-68
2021/01/12 06:15:31;;;;;;;204.82;65.75;;;0.80;2201.60;;;;;;4883911;29;20087;-69
2021/01/12 06:18:04;;;;;;;236.55;69.70;;;0.70;2201.60;;;;;;4891450;29;20074;-68
2021/01/12 06:20:43;;;;;;;245.40;74.63;;;0.60;2201.60;;;;;;4889845;29;20025;-69
2021/01/12 06:23:16;;;;;;;259.33;77.60;;;0.50;2201.60;;;;;;4885270;29;20054;-68
2021/01/12 06:25:44;;;;;;;219.32;71.97;;;0.50;2201.60;;;;;;4889910;29;20044;-69
2021/01/12 06:28:10;;;;;;;227.88;72.90;;;0.50;2201.60;;;;;;4884952;29;20055;-69
2021/01/12 06:30:36;;;;;;;239.18;76.90;;;0.50;2201.60;;;;;;4874350;29;20063;-69
2021/01/12 06:33:02;;;;;;;260.23;81.25;;;0.40;2201.60;;;;;;4880133;29;20481;-69
2021/01/12 06:35:29;;;;;;;249.57;78.72;;;0.30;2201.60;;;;;;4893387;29;20028;-69
2021/01/12 06:37:57;;;;;;;247.20;78.85;;;0.50;2201.60;;;;;;4888965;29;20297;-69
2021/01/12 06:40:24;;;;;;;249.82;78.40;;;0.60;2201.60;;;;;;4878305;29;20028;-68
2021/01/12 06:42:50;;;;;;;242.50;76.30;;;0.60;2201.60;;;;;;4870444;29;20045;-69
2021/01/12 06:45:17;;;;;;;257.17;80.45;;;0.50;2201.60;;;;;;4897925;29;20036;-69
2021/01/12 06:47:43;;;;;;;277.38;80.80;;;0.50;2201.60;;;;;;4889430;29;20036;-70
2021/01/12 06:50:14;;;;;;;300.75;80.75;;;0.40;2201.60;;;;;;4884171;29;20027;-68
2021/01/12 06:52:42;;;;;;;280.77;82.20;;;12.90;2201.60;;;;;;4889853;29;20071;-68
2021/01/12 06:55:10;;;;;;;277.27;83.70;;;0.50;2201.60;;;;;;4896369;29;20134;-69
2021/01/12 06:57:36;;;;;;;265.00;83.20;;;0.50;2201.60;;;;;;4881141;29;20032;-74
2021/01/12 07:00:08;;;;;;;291.25;85.30;;;0.50;2201.60;;;;;;4884262;29;20029;-69
2021/01/12 07:02:34;;;;;;;308.27;90.22;;;0.50;2201.60;;;;;;4875758;29;20040;-69
2021/01/12 07:05:06;;;;;;;319.02;99.80;;;0.60;2201.60;;;;;;4898883;29;20028;-70
2021/01/12 07:07:40;;;;;;;314.10;93.22;;;0.60;2201.60;;;;;;4938016;29;20079;-70
2021/01/12 07:10:09;;;;;;;287.02;84.20;;;0.50;2201.60;;;;;;4944502;29;20036;-74
2021/01/12 07:12:36;;;;;;;283.73;82.05;;;0.50;2201.60;;;;;;4935330;29;20046;-72
2021/01/12 07:15:14;;;;;;;281.13;80.90;;;0.50;2201.60;;;;;;4907907;29;20470;-69
2021/01/12 07:17:45;;;;;;;309.70;81.60;;;25.60;2201.60;;;;;;4891209;29;20481;-69
2021/01/12 07:20:19;;;;;;;368.17;91.72;;;0.60;2201.60;;;;;;4929963;29;20043;-71
2021/01/12 07:23:13;;;;;;;277.25;80.30;;;0.50;2201.60;;;;;;4932146;29;20476;-74
2021/01/12 07:26:14;;;;;;;288.98;75.97;;;0.50;2201.60;;;;;;4944682;28;20031;-71
2021/01/12 07:28:46;;;;;;;198.93;65.20;;;0.70;2201.60;;;;;;4815883;29;20054;-71
2021/01/12 07:31:12;;;;;;;191.95;65.60;;;0.60;2201.60;;;;;;4802621;29;20153;-71
2021/01/12 07:33:40;;;;;;;198.75;65.57;;;0.60;2201.60;;;;;;4807404;29;20468;-71
2021/01/12 07:36:07;;;;;;;224.77;85.95;;;0.60;2201.60;;;;;;4800660;29;20045;-70
2021/01/12 07:38:33;;;;;;;220.10;79.00;;;0.60;2201.60;;;;;;4797207;29;20453;-70
2021/01/12 07:41:00;;;;;;;203.73;71.20;;;0.70;2201.60;;;;;;4797410;29;20246;-71
2021/01/12 07:43:27;;;;;;;187.90;63.88;;;0.80;2201.60;;;;;;4800413;29;20485;-70
2021/01/12 07:45:54;;;;;;;218.18;76.38;;;0.50;2201.60;;;;;;4799547;29;20050;-70
2021/01/12 07:48:20;;;;;;;209.30;83.45;;;0.80;2201.60;;;;;;4800711;29;20475;-74
2021/01/12 07:50:49;;;;;;;206.35;85.95;;;0.80;2201.60;;;;;;4800042;29;20644;-71
2021/01/12 07:53:20;;;;;;;186.18;74.53;;;0.80;2201.60;;;;;;4820315;29;20841;-80
2021/01/12 07:55:47;;;;;;;187.35;74.57;;;0.80;2201.60;;;;;;4848831;29;20509;-70
2021/01/12 07:58:14;;;;;;;192.25;75.20;;;0.90;2201.60;;;;;;4833193;29;20038;-72
2021/01/12 08:00:41;;;;;;;249.20;110.22;;;25.60;2201.60;;;;;;4818529;29;20010;-71
2021/01/12 08:03:07;;;;;;;213.20;92.35;;;25.60;2201.60;;;;;;4849448;29;20046;-70
2021/01/12 08:05:33;;;;;;;162.85;71.97;;;26.00;2201.60;;;;;;4924732;23;20060;-68
2021/01/12 08:08:00;;;;;;;187.90;85.78;;;26.30;2201.60;;;;;;4881006;29;20199;-66
2021/01/12 08:10:25;;;;;;;187.88;82.07;;;25.60;2201.60;;;;;;4882373;29;20114;-67
2021/01/12 08:13:01;;;;;;;188.25;86.05;;;0.90;2201.60;;;;;;4882908;29;20036;-66
2021/01/12 08:15:27;;;;;;;187.55;81.72;;;25.60;2201.60;;;;;;4883874;29;20431;-67
2021/01/12 08:17:54;;;;;;;179.70;79.80;;;25.70;2201.60;;;;;;4883412;29;20032;-67
2021/01/12 08:20:20;;;;;;;170.45;74.10;;;25.80;2201.60;;;;;;4881011;29;20039;-67
2021/01/12 08:22:53;;;;;;;162.00;78.93;;;25.70;2201.60;;;;;;4880420;29;20784;-68
2021/01/12 08:25:19;;;;;;;158.02;71.95;;;25.80;2201.60;;;;;;4878918;29;20194;-68
2021/01/12 08:27:53;;;;;;;154.70;68.70;;;25.70;2201.60;;;;;;4882315;29;20036;-73
2021/01/12 08:30:21;;;;;;;159.63;69.38;;;25.90;2201.60;;;;;;4925678;29;20040;-67
2021/01/12 08:33:08;;;;;;;161.38;70.85;;;25.80;2201.60;;;;;;4932026;29;20017;-67
2021/01/12 08:35:56;;;;;;;189.82;75.93;;;25.80;2201.60;;;;;;4918460;29;20115;-66
2021/01/12 08:38:24;;;;;;;171.48;75.40;;;25.80;2201.60;;;;;;4917924;29;20045;-70
2021/01/12 08:40:50;;;;;;;204.57;79.28;;;25.80;2201.60;;;;;;4925878;29;20059;-70
2021/01/12 08:43:20;;;;;;;162.57;67.40;;;26.10;2201.60;;;;;;4878168;29;20550;-68
2021/01/12 08:45:47;;;;;;;180.65;74.07;;;26.00;2201.60;;;;;;4886474;29;20430;-68
2021/01/12 08:48:15;;;;;;;167.75;66.97;;;26.10;2201.60;;;;;;4881607;29;20874;-67
2021/01/12 08:50:42;;;;;;;172.48;68.68;;;26.10;2201.60;;;;;;4880193;29;20478;-68
2021/01/12 08:53:08;;;;;;;183.70;69.88;;;26.10;2201.60;;;;;;4879543;29;20426;-67
2021/01/12 08:55:34;;;;;;;171.00;67.15;;;26.10;2201.60;;;;;;4879317;29;20417;-68
2021/01/12 08:58:03;;;;;;;169.50;66.60;;;0.80;2201.60;;;;;;4879634;29;20814;-67
2021/01/12 09:00:37;;;;;;;180.07;68.22;;;26.20;2201.60;;;;;;4879557;29;20028;-68
2021/01/12 09:03:04;;;;;;;169.25;65.35;;;26.20;2201.60;;;;;;4879463;29;20032;-67
2021/01/12 09:05:38;;;;;;;187.00;69.45;;;26.20;2201.60;;;;;;4877997;29;20183;-68
2021/01/12 09:08:05;;;;;;;;;;;26.10;2201.60;;;;;;4873079;29;20482;-68
2021/01/12 09:10:31;;;;;;;185.77;68.80;;;26.20;2201.60;;;;;;4903652;28;19898;-69
2021/01/12 09:12:57;;;;;;;185.93;70.63;;;26.20;2201.60;;;;;;4885063;29;20850;-68
2021/01/12 09:15:34;;;;;;;193.38;70.35;;;26.30;2201.60;;;;;;4900599;29;20031;-78
2021/01/12 09:18:23;;;;;;;202.77;70.90;;;26.40;2201.60;;;;;;4894898;29;20118;-68
2021/01/12 09:20:57;;;;;;;185.98;67.18;;;26.30;2201.60;;;;;;4876515;29;20585;-69
2021/01/12 09:23:24;;;;;;;170.98;64.65;;;26.30;2201.60;;;;;;4877580;29;20047;-68
2021/01/12 09:25:58;;;;;;;195.38;69.80;;;26.20;2201.60;;;;;;4877213;29;20359;-68
2021/01/12 09:28:26;;;;;;;177.43;66.68;;;26.30;2201.60;;;;;;4854432;29;20774;-70
2021/01/12 09:31:09;;;;;;;206.55;69.53;;;26.20;2201.60;;;;;;4876043;29;20020;-70
2021/01/12 09:33:36;;;;;;;207.13;67.60;;;26.30;2201.60;;;;;;4875226;29;20047;-68
2021/01/12 09:36:04;;;;;;;206.63;71.25;;;26.30;2201.60;;;;;;4860849;29;20481;-68
2021/01/12 09:38:42;;;;;;;222.75;71.32;;;26.20;2201.60;;;;;;4876846;29;20358;-69
2021/01/12 09:41:08;;;;;;;193.90;65.72;;;26.30;2201.60;;;;;;4878735;29;20458;-68
2021/01/12 09:43:35;;;;;;;199.45;65.05;;;26.40;2201.60;;;;;;4876948;29;20024;-73
2021/01/12 09:46:01;;;;;;;208.55;62.95;;;26.40;2201.60;;;;;;4913419;29;20031;-72
2021/01/12 09:48:26;;;;;;;200.20;64.70;;;26.30;2201.60;;;;;;4908256;29;20055;-75
2021/01/12 09:50:52;;;;;;;218.70;66.55;;;26.20;2201.60;;;;;;4900531;29;20028;-75
2021/01/12 09:53:18;;;;;;;211.00;64.47;;;26.30;2201.60;;;;;;4914098;29;20146;-74
2021/01/12 09:55:44;;;;;;;244.77;67.05;;;26.30;2201.60;;;;;;4919476;29;20404;-79
2021/01/12 09:58:10;;;;;;;238.15;67.68;;;26.30;2201.60;;;;;;4896839;29;20032;-77
2021/01/12 10:00:36;;;;;;;255.50;71.20;;;51.50;2227.20;;;;;;4881648;29;20405;-67
2021/01/12 10:03:04;;;;;;;276.05;71.68;;;26.20;2201.60;;;;;;4878119;29;21169;-65
2021/01/12 10:05:30;;;;;;;211.85;65.28;;;26.30;2201.60;;;;;;4875969;29;20040;-67
2021/01/12 10:07:56;;;;;;;217.35;65.70;;;26.40;2201.60;;;;;;4873738;29;20043;-66
2021/01/12 10:10:24;;;;;;;210.65;61.90;;;26.50;2201.60;;;;;;4878308;29;20028;-68
2021/01/12 10:12:49;;;;;;;195.35;60.15;;;26.40;2201.60;;;;;;4880014;29;20047;-65
2021/01/12 10:15:15;;;;;;;285.08;113.03;;;26.40;2201.60;;;;;;4876352;29;20398;-70
2021/01/12 10:17:41;;;;;;;215.70;66.32;;;26.30;2201.60;;;;;;4879125;29;20228;-68
2021/01/12 10:20:07;;;;;;;191.23;62.92;;;26.30;2201.60;;;;;;4871360;29;21006;-67
2021/01/12 10:22:32;;;;;;;180.60;61.70;;;26.30;2201.60;;;;;;4878094;29;20036;-69
2021/01/12 10:24:59;;;;;;;204.90;67.72;;;26.50;2201.60;;;;;;4876401;29;20430;-67
2021/01/12 10:27:25;;;;;;;177.93;61.88;;;26.50;2201.60;;;;;;4878381;29;20031;-68
2021/01/12 10:29:52;;;;;;;191.73;67.50;;;26.30;2201.60;;;;;;4873209;29;20035;-67
2021/01/12 10:32:19;;;;;;;187.13;65.68;;;26.40;2201.60;;;;;;4873590;29;20221;-68
2021/01/12 10:34:44;;;;;;;184.57;65.97;;;26.40;2201.60;;;;;;4881637;29;20029;-67
2021/01/12 10:37:14;;;;;;;182.75;66.20;;;26.50;2201.60;;;;;;4880788;29;20563;-67
2021/01/12 10:39:40;;;;;;;187.55;70.43;;;26.50;2201.60;;;;;;4883936;29;20035;-75
2021/01/12 10:42:06;;;;;;;211.82;69.05;;;26.50;2201.60;;;;;;4889582;29;20032;-76
2021/01/12 10:44:32;;;;;;;186.18;64.80;;;26.50;2201.60;;;;;;4884681;29;20036;-72
2021/01/12 10:46:58;;;;;;;158.70;62.67;;;51.20;2227.20;;;;;;4879586;29;20494;-71
2021/01/12 10:49:24;;;;;;;196.07;65.43;;;26.50;2201.60;;;;;;4880860;29;20099;-71
2021/01/12 10:52:00;;;;;;;196.43;63.85;;;26.40;2201.60;;;;;;4881349;29;20063;-74
2021/01/12 10:54:27;;;;;;;198.13;66.47;;;26.40;2201.60;;;;;;4861241;29;20039;-74
2021/01/12 10:56:53;;;;;;;199.80;66.47;;;26.30;2201.60;;;;;;4860488;29;20040;-74
2021/01/12 10:59:19;;;;;;;202.00;69.40;;;26.40;2201.60;;;;;;4879041;29;20199;-68
2021/01/12 11:01:51;;;;;;;185.27;64.82;;;26.50;2201.60;;;;;;4883159;29;20036;-74
2021/01/12 11:04:17;;;;;;;196.55;64.28;;;26.50;2201.60;;;;;;4900053;29;20436;-70
2021/01/12 11:06:43;;;;;;;198.25;65.18;;;26.40;2201.60;;;;;;4863723;29;20065;-71
2021/01/12 11:09:09;;;;;;;220.43;72.22;;;26.20;2201.60;;;;;;4867137;29;20059;-70
2021/01/12 11:11:35;;;;;;;206.73;67.75;;;26.30;2201.60;;;;;;4880873;29;20032;-69
2021/01/12 11:14:24;;;;;;;191.90;66.88;;;26.20;2201.60;;;;;;4890111;29;20631;-69
2021/01/12 11:16:51;;;;;;;186.95;64.25;;;26.30;2201.60;;;;;;4930869;29;20016;-70
2021/01/12 11:19:21;;;;;;;205.27;71.50;;;26.20;2201.60;;;;;;4926974;29;20020;-75
2021/01/12 11:21:48;;;;;;;214.70;79.72;;;26.20;2201.60;;;;;;4884892;29;20044;-68
2021/01/12 11:24:25;;;;;;;176.65;65.95;;;26.30;2201.60;;;;;;4880421;29;20138;-68
2021/01/12 11:26:53;;;;;;;202.90;77.22;;;26.40;2201.60;;;;;;4874850;29;20044;-70
2021/01/12 11:29:20;;;;;;;187.52;64.85;;;26.00;2201.60;;;;;;4879213;29;20067;-69
2021/01/12 11:31:46;;;;;;;205.35;76.10;;;51.20;2227.20;;;;;;4861325;29;20038;-70
2021/01/12 11:34:12;;;;;;;182.70;66.68;;;26.30;2201.60;;;;;;4877607;29;20167;-69
2021/01/12 11:36:42;;;;;;;188.57;65.90;;;26.40;2201.60;;;;;;4917376;29;20142;-71
2021/01/12 11:39:09;;;;;;;204.30;77.63;;;26.40;2201.60;;;;;;4882303;29;20028;-74
2021/01/12 11:41:36;;;;;;;189.18;74.45;;;51.20;2227.20;;;;;;4904757;29;20102;-74
2021/01/12 11:44:02;;;;;;;178.35;67.45;;;26.50;2201.60;;;;;;4907635;29;20020;-74
2021/01/12 11:46:30;;;;;;;172.00;65.03;;;26.50;2201.60;;;;;;4882069;29;20036;-72
2021/01/12 11:48:58;;;;;;;189.57;73.13;;;26.50;2201.60;;;;;;4919811;29;20509;-72
2021/01/12 11:51:32;;;;;;;171.38;63.08;;;26.50;2201.60;;;;;;4885005;29;20599;-70
2021/01/12 11:53:58;;;;;;;169.80;62.95;;;26.50;2201.60;;;;;;4908054;29;20032;-70
2021/01/12 11:56:24;;;;;;;160.07;59.35;;;51.30;2227.20;;;;;;4879597;29;20465;-73
2021/01/12 11:58:50;;;;;;;152.75;58.13;;;51.40;2227.20;;;;;;4878319;29;20501;-72
2021/01/12 12:01:16;;;;;;;158.85;58.15;;;51.40;2227.20;;;;;;4890039;29;20036;-75
2021/01/12 12:03:42;;;;;;;172.07;59.78;;;51.50;2227.20;;;;;;4883481;29;20059;-70
2021/01/12 12:06:12;;;;;;;168.95;61.55;;;51.70;2227.20;;;;;;4875903;29;20069;-71
2021/01/12 12:08:38;;;;;;;159.90;59.83;;;51.40;2227.20;;;;;;4875580;29;20450;-70
2021/01/12 12:11:04;;;;;;;142.48;58.85;;;51.30;2227.20;;;;;;4876526;29;20501;-72